CheckWX is a tool to help pilots better visualize weather data.  It is not intended as a substitute for an official pre-flight weather briefing.

16:17:20 UTC

KCQT METAR
Los Angeles / USC Campus Downtown Airport
Los Angeles, California, USA
Current

25 mins ago

KCQT 191552Z AUTO 00000KT 10SM CLR 18/04 A2976 RMK AO2 SLP077 T01780039
Observed
Nov-19 @ 15:52 UTC
Visibility
10 SM
Flight Rules
VFR
Cloud Levels
  • Clear skies
Temperature
18°C / 64°F
Dewpoint
C / 39°F
Humidity
40%
Altimeter
29.76" Hg
Pressure
1007.82 hPa
Previous

1 hour ago

KCQT 191452Z AUTO 00000KT 10SM FEW100 17/06 A2977 RMK AO2 SLP080 T01720061 53006
Observed
Nov-19 @ 14:52 UTC
Visibility
10 SM
Flight Rules
VFR
Cloud Levels
  • Few at 10,000' AGL
Temperature
17°C / 63°F
Dewpoint
C / 43°F
Humidity
49%
Altimeter
29.77" Hg
Pressure
1008.12 hPa
Previous

2 hours ago

KCQT 191352Z AUTO 00000KT 10SM CLR 17/06 A2976 RMK AO2 SLP074 T01670061
Observed
Nov-19 @ 13:52 UTC
Visibility
10 SM
Flight Rules
VFR
Cloud Levels
  • Clear skies
Temperature
17°C / 63°F
Dewpoint
C / 43°F
Humidity
49%
Altimeter
29.76" Hg
Pressure
1007.82 hPa